Time;durP1;ratioP1;P1;durP2;ratioP2;P2;SDS_P1;SDS_P2;PMS_P1;PMS_P2;Temp;Humidity;BMP_temperature;BMP_pressure;BME280_temperature;BME280_humidity;BME280_pressure;Samples;Min_cycle;Max_cycle;Signal;HPM_P1;HPM_P2
2022/08/12 00:43:58;;;;;;;11.40;5.45;;;;;;;24.68;60.00;100573.13;2110717;28;20489;-75
2022/08/12 00:45:20;;;;;;;10.10;4.80;;;;;;;24.66;60.08;100566.91;2107456;28;20086;-76
2022/08/12 00:46:50;;;;;;;12.43;5.40;;;;;;;24.64;60.49;100569.69;2104824;28;20051;-76
2022/08/12 00:48:14;;;;;;;11.77;5.85;;;;;;;24.63;60.29;100567.91;2111800;28;20151;-75
2022/08/12 00:49:37;;;;;;;11.48;5.25;;;;;;;24.61;60.33;100578.78;2103844;28;20598;-75
2022/08/12 00:51:01;;;;;;;13.07;5.18;;;;;;;24.62;60.61;100563.47;2119115;27;20466;-76
2022/08/12 00:52:24;;;;;;;11.43;5.40;;;;;;;24.62;60.55;100566.16;2106764;28;20101;-75
2022/08/12 00:53:47;;;;;;;11.88;5.43;;;;;;;24.59;60.64;100567.19;2102501;28;20056;-75
2022/08/12 00:55:09;;;;;;;9.98;5.10;;;;;;;24.61;60.37;100570.69;2104144;28;20044;-76
2022/08/12 00:56:31;;;;;;;11.48;5.10;;;;;;;24.62;60.48;100567.03;2104616;28;20051;-75
2022/08/12 00:57:54;;;;;;;14.07;5.35;;;;;;;24.63;60.53;100562.53;2116691;27;20128;-75
2022/08/12 00:59:16;;;;;;;10.48;4.82;;;;;;;24.62;60.27;100569.75;2097815;28;20053;-76
2022/08/12 01:00:41;;;;;;;10.50;4.97;;;;;;;24.62;60.58;100566.16;2100475;28;20079;-76
2022/08/12 01:02:04;;;;;;;13.38;5.10;;;;;;;24.65;60.28;100552.53;2098030;28;20054;-76
2022/08/12 01:11:27;;;;;;;11.95;4.60;;;;;;;24.69;60.11;100562.25;2094114;28;20508;-76
2022/08/12 01:11:55;;;;;;;13.50;5.78;;;;;;;24.64;60.24;100564.28;2115970;27;20058;-75
2022/08/12 01:13:17;;;;;;;12.02;5.82;;;;;;;24.60;60.25;100568.97;2107383;28;20052;-75
2022/08/12 01:14:42;;;;;;;10.50;5.72;;;;;;;24.48;60.36;100561.38;2107600;28;20642;-75
2022/08/12 01:16:07;;;;;;;10.73;5.43;;;;;;;24.44;60.45;100567.88;2102252;28;20044;-76
2022/08/12 01:17:29;;;;;;;10.32;5.35;;;;;;;24.44;60.59;100564.31;2102802;28;20054;-76
2022/08/12 01:18:56;;;;;;;13.23;6.38;;;;;;;24.49;60.46;100568.53;2101201;28;20101;-76
2022/08/12 01:20:33;;;;;;;13.40;5.55;;;;;;;24.55;60.37;100568.25;2102580;28;20155;-76
2022/08/12 01:22:19;;;;;;;8.10;5.10;;;;;;;24.60;60.13;100565.38;2095601;28;20037;-75
2022/08/12 01:23:49;;;;;;;12.75;5.80;;;;;;;24.59;60.04;100566.31;2096637;28;20048;-75
2022/08/12 01:25:17;;;;;;;9.23;4.85;;;;;;;24.58;60.15;100565.44;2098127;28;20044;-75
2022/08/12 01:26:42;;;;;;;23.20;5.90;;;;;;;24.60;59.95;100562.69;2112251;27;20044;-76
2022/08/12 01:28:08;;;;;;;13.15;4.88;;;;;;;24.60;60.23;100573.47;2104710;28;20487;-75
2022/08/12 01:29:33;;;;;;;8.00;5.30;;;;;;;24.59;59.89;100571.72;2117488;27;20490;-75
2022/08/12 01:30:59;;;;;;;8.70;5.65;;;;;;;24.58;59.96;100572.66;2098752;28;20037;-75
2022/08/12 01:32:22;;;;;;;9.82;6.00;;;;;;;24.57;60.08;100569.09;2093900;28;20479;-75
2022/08/12 01:33:56;;;;;;;14.77;5.63;;;;;;;24.58;60.01;100572.66;2116910;27;20418;-75
2022/08/12 01:35:17;;;;;;;12.23;5.18;;;;;;;24.57;60.11;100573.59;2099477;28;20056;-75
2022/08/12 01:36:43;;;;;;;12.48;5.43;;;;;;;24.56;59.99;100570.03;2093713;28;20056;-75
2022/08/12 01:38:11;;;;;;;13.10;5.45;;;;;;;24.57;60.26;100568.22;2097052;28;20051;-76
2022/08/12 01:39:37;;;;;;;12.68;5.38;;;;;;;24.57;60.17;100574.47;2101858;28;20042;-75
2022/08/12 01:41:02;;;;;;;9.23;5.07;;;;;;;24.54;59.96;100577.34;2103274;28;20048;-75
2022/08/12 01:42:25;;;;;;;9.30;5.30;;;;;;;24.47;60.17;100573.16;2117990;28;20067;-75
2022/08/12 01:43:49;;;;;;;10.43;5.15;;;;;;;24.44;60.42;100573.28;2099032;28;20053;-76
2022/08/12 01:45:11;;;;;;;11.68;5.45;;;;;;;24.43;60.42;100571.53;2101174;28;20726;-75
2022/08/12 01:46:50;;;;;;;9.73;5.18;;;;;;;24.40;60.24;100573.50;2102133;28;20052;-76
2022/08/12 01:48:22;;;;;;;9.43;5.68;;;;;;;24.36;60.65;100566.47;2095996;28;20048;-76
2022/08/12 01:50:03;;;;;;;10.20;5.03;;;;;;;24.35;60.68;100562.88;2109073;28;20058;-75
2022/08/12 01:51:38;;;;;;;12.35;5.60;;;;;;;24.35;60.21;100565.59;2108484;28;20042;-75
2022/08/12 01:53:08;;;;;;;7.90;5.13;;;;;;;24.37;60.24;100560.13;2101519;28;20071;-76
2022/08/12 01:54:37;;;;;;;16.13;6.35;;;;;;;24.36;60.34;100561.94;2095612;28;20044;-76
2022/08/12 01:56:02;;;;;;;9.77;5.00;;;;;;;24.36;60.27;100561.94;2108886;28;20051;-75
2022/08/12 01:57:40;;;;;;;13.55;5.90;;;;;;;24.38;60.41;100569.97;2096329;28;20047;-76
2022/08/12 02:00:54;;;;;;;8.25;4.90;;;;;;;24.27;60.44;100567.75;2103875;28;20055;-75
2022/08/12 02:02:18;;;;;;;9.68;5.03;;;;;;;24.22;60.42;100567.94;2103347;28;20056;-75
2022/08/12 02:11:28;;;;;;;9.52;5.93;;;;;;;23.93;61.08;100557.53;2096527;28;20037;-75
2022/08/12 02:12:57;;;;;;;9.95;5.88;;;;;;;23.95;60.83;100563.72;2104576;28;20093;-75
2022/08/12 02:14:47;;;;;;;12.18;5.30;;;;;;;23.99;60.95;100564.47;2086312;28;20045;-75
2022/08/12 02:16:29;;;;;;;14.48;5.80;;;;;;;23.99;60.84;100568.03;2104669;28;20191;-76
2022/08/12 02:18:13;;;;;;;10.00;5.63;;;;;;;23.96;60.71;100559.22;2101553;28;20051;-76
2022/08/12 02:19:45;;;;;;;9.25;5.75;;;;;;;23.94;60.80;100561.09;2096276;28;20040;-76
2022/08/12 02:21:22;;;;;;;11.05;5.78;;;;;;;23.95;60.63;100560.16;2104561;28;20047;-76
2022/08/12 02:22:47;;;;;;;9.15;4.95;;;;;;;23.94;60.85;100556.59;2103219;28;20496;-76
2022/08/12 02:24:13;;;;;;;9.55;5.15;;;;;;;23.91;60.77;100556.69;2102217;28;20556;-75
2022/08/12 02:25:37;;;;;;;10.30;5.20;;;;;;;23.83;61.10;100559.72;2094765;28;20143;-75
2022/08/12 02:27:03;;;;;;;10.82;5.80;;;;;;;23.82;61.18;100563.38;2097678;28;20096;-75
2022/08/12 02:28:25;;;;;;;10.82;5.72;;;;;;;23.80;61.27;100556.28;2102405;28;20403;-76
2022/08/12 02:29:48;;;;;;;10.63;5.10;;;;;;;23.77;61.30;100557.28;2103852;28;20103;-75
2022/08/12 02:31:11;;;;;;;9.77;5.47;;;;;;;23.73;61.38;100555.66;2110310;28;20051;-76
2022/08/12 02:32:38;;;;;;;9.45;5.70;;;;;;;23.76;61.63;100546.59;2098937;28;20079;-76
2022/08/12 02:34:01;;;;;;;9.52;5.65;;;;;;;23.78;61.63;100553.66;2096337;28;20064;-76
2022/08/12 02:35:25;;;;;;;10.93;5.53;;;;;;;23.77;61.61;100557.28;2095725;28;20113;-76
2022/08/12 02:36:48;;;;;;;11.93;5.55;;;;;;;23.70;61.80;100560.28;2091679;28;20685;-76
2022/08/12 02:38:11;;;;;;;10.95;5.35;;;;;;;23.62;61.72;100555.25;2107636;28;20051;-75
2022/08/12 02:39:36;;;;;;;8.57;4.95;;;;;;;23.52;62.08;100553.84;2120132;28;20058;-76
2022/08/12 02:41:01;;;;;;;7.75;4.72;;;;;;;23.51;62.26;100544.00;2105415;28;20439;-75
2022/08/12 02:42:27;;;;;;;11.23;6.00;;;;;;;23.56;62.26;100547.41;2104881;28;20093;-76
2022/08/12 02:43:52;;;;;;;11.77;5.05;;;;;;;23.60;61.94;100551.72;2103275;28;20055;-76
2022/08/12 02:45:18;;;;;;;9.23;5.05;;;;;;;23.63;61.95;100550.72;2104210;28;20108;-75
2022/08/12 02:46:49;;;;;;;9.13;5.60;;;;;;;23.67;62.02;100552.34;2110019;28;20079;-75
2022/08/12 02:48:23;;;;;;;11.52;6.00;;;;;;;23.70;61.60;100547.69;2103417;28;20416;-75
2022/08/12 02:49:51;;;;;;;14.40;5.32;;;;;;;23.73;61.48;100552.09;2110402;28;20147;-75
2022/08/12 02:51:19;;;;;;;8.63;5.40;;;;;;;23.74;61.40;100548.47;2096222;28;20044;-76
2022/08/12 02:52:42;;;;;;;12.75;5.90;;;;;;;23.74;61.27;100552.03;2116663;27;20113;-75
2022/08/12 02:54:06;;;;;;;10.60;5.78;;;;;;;23.72;61.53;100555.72;2101453;28;20052;-75
2022/08/12 02:55:34;;;;;;;11.73;5.47;;;;;;;23.70;61.67;100553.06;2111839;28;20551;-75
2022/08/12 02:56:56;;;;;;;12.57;5.38;;;;;;;23.72;61.64;100551.22;2107260;28;20051;-75
2022/08/12 02:58:21;;;;;;;11.73;5.53;;;;;;;23.76;61.62;100554.66;2109036;28;20172;-76
2022/08/12 02:59:43;;;;;;;9.23;5.07;;;;;;;23.77;61.66;100549.19;2108248;28;20060;-75
2022/08/12 03:01:08;;;;;;;10.75;4.90;;;;;;;23.77;61.52;100554.59;2102489;28;20156;-76
2022/08/12 03:02:32;;;;;;;8.48;5.10;;;;;;;23.77;61.67;100557.28;2101831;28;20109;-75
2022/08/12 03:03:59;;;;;;;8.20;5.00;;;;;;;23.73;61.67;100558.34;2100514;28;20082;-76
2022/08/12 03:05:23;;;;;;;9.68;4.75;;;;;;;23.71;61.65;100552.16;2112588;28;20075;-76
2022/08/12 03:06:51;;;;;;;11.27;5.05;;;;;;;23.74;61.86;100554.72;2102033;28;20493;-76
2022/08/12 03:08:19;;;;;;;12.35;5.43;;;;;;;23.79;61.64;100551.81;2103983;28;20052;-75
2022/08/12 03:09:48;;;;;;;12.25;5.00;;;;;;;23.82;61.51;100547.19;2112585;28;20655;-75
2022/08/12 03:11:17;;;;;;;11.20;5.68;;;;;;;23.84;61.43;100548.00;2096495;28;20056;-75
2022/08/12 03:12:40;;;;;;;9.65;5.20;;;;;;;23.87;61.21;100554.19;2118937;27;20400;-75
2022/08/12 03:14:05;;;;;;;9.95;4.47;;;;;;;23.85;61.25;100551.56;2110189;28;20051;-76
2022/08/12 03:15:27;;;;;;;11.38;5.45;;;;;;;23.84;61.21;100549.81;2098026;28;20047;-76
2022/08/12 03:16:58;;;;;;;8.05;5.10;;;;;;;23.85;61.10;100551.56;2105796;28;20043;-75
2022/08/12 03:18:28;;;;;;;10.98;5.10;;;;;;;23.85;61.16;100548.88;2105084;28;20102;-75
2022/08/12 03:19:53;;;;;;;9.55;4.90;;;;;;;23.86;60.79;100549.75;2103830;28;20051;-76
2022/08/12 03:21:17;;;;;;;9.23;4.97;;;;;;;23.84;61.13;100553.38;2101830;28;20063;-75
2022/08/12 03:22:41;;;;;;;8.48;4.70;;;;;;;23.82;61.16;100551.72;2103397;28;20056;-75
2022/08/12 03:24:05;;;;;;;8.80;4.97;;;;;;;23.73;61.07;100552.97;2114189;28;20035;-76
2022/08/12 03:25:30;;;;;;;10.90;4.97;;;;;;;23.71;61.17;100551.25;2105987;28;20107;-76
2022/08/12 03:26:55;;;;;;;9.70;5.63;;;;;;;23.70;61.43;100555.78;2092024;28;20055;-76
2022/08/12 03:28:49;;;;;;;9.77;5.20;;;;;;;23.72;61.29;100555.72;2099192;28;20043;-75
2022/08/12 03:30:02;;;;;;;10.23;5.38;;;;;;;23.72;61.18;100564.69;2103947;28;20059;-75
2022/08/12 03:31:28;;;;;;;10.02;5.13;;;;;;;23.72;61.36;100559.28;2102517;28;20040;-75
2022/08/12 03:32:51;;;;;;;11.93;5.20;;;;;;;23.72;61.33;100556.59;2101181;28;20590;-76
2022/08/12 03:34:22;;;;;;;12.13;5.18;;;;;;;23.74;61.27;100565.50;2097261;28;20829;-76
2022/08/12 03:35:46;;;;;;;11.75;5.28;;;;;;;23.74;61.21;100565.50;2117120;27;20720;-76
2022/08/12 03:37:09;;;;;;;9.18;5.43;;;;;;;23.75;61.20;100572.66;2107854;28;20051;-75
2022/08/12 03:38:35;;;;;;;14.73;5.43;;;;;;;23.75;61.22;100569.09;2102863;28;20039;-76
2022/08/12 03:39:57;;;;;;;9.70;4.38;;;;;;;23.77;61.18;100569.88;2110518;28;20305;-75
2022/08/12 03:41:33;;;;;;;9.38;4.80;;;;;;;23.79;61.14;100571.59;2108341;28;20103;-75
2022/08/12 04:01:34;;;;;;;9.80;4.47;;;;;;;24.62;59.85;100576.97;2104947;28;20033;-76
2022/08/12 04:03:00;;;;;;;8.40;4.38;;;;;;;24.71;59.57;100572.97;2101660;28;20535;-76
2022/08/12 04:04:22;;;;;;;15.70;5.80;;;;;;;24.80;59.67;100575.28;2103366;28;20131;-76
2022/08/12 04:05:45;;;;;;;9.77;4.38;;;;;;;24.88;59.24;100578.47;2118103;27;20070;-75
2022/08/12 04:07:08;;;;;;;9.63;4.20;;;;;;;24.96;59.31;100574.50;2102232;28;20048;-76
2022/08/12 04:08:31;;;;;;;6.55;3.65;;;;;;;25.04;59.16;100582.25;2103022;28;20060;-75
2022/08/12 04:09:54;;;;;;;8.77;4.43;;;;;;;25.13;59.07;100589.94;2093463;28;20783;-76
2022/08/12 04:13:15;;;;;;;8.10;4.20;;;;;;;25.31;58.82;100580.94;2108006;28;20044;-75
2022/08/12 04:14:39;;;;;;;8.18;3.85;;;;;;;25.40;58.37;100582.34;2105546;28;20504;-75
2022/08/12 04:16:03;;;;;;;9.80;3.85;;;;;;;25.50;58.05;100580.94;2104017;28;20055;-75
2022/08/12 04:17:27;;;;;;;9.60;4.43;;;;;;;25.60;57.92;100587.66;2102618;28;20081;-75
2022/08/12 04:18:51;;;;;;;7.63;4.10;;;;;;;25.69;57.90;100589.91;2105460;28;20044;-76
2022/08/12 04:20:18;;;;;;;7.63;3.80;;;;;;;25.82;57.77;100583.91;2119697;27;20047;-76
2022/08/12 04:21:39;;;;;;;9.60;3.65;;;;;;;25.93;57.58;100587.81;2106515;28;20075;-75
2022/08/12 04:23:03;;;;;;;6.60;3.60;;;;;;;26.04;57.45;100587.28;2104104;28;20052;-75
2022/08/12 04:24:26;;;;;;;8.07;3.28;;;;;;;26.13;57.05;100584.97;2112288;27;20074;-75
2022/08/12 04:25:48;;;;;;;8.50;3.80;;;;;;;26.24;56.91;100586.25;2110240;28;20129;-75
2022/08/12 04:27:11;;;;;;;4.90;3.28;;;;;;;26.33;56.74;100589.38;2113271;27;20035;-75
2022/08/12 04:28:34;;;;;;;7.93;3.28;;;;;;;26.46;56.62;100589.59;2096857;28;20118;-75
2022/08/12 04:29:57;;;;;;;7.88;3.33;;;;;;;26.56;56.32;100582.75;2099469;28;20595;-75
2022/08/12 04:31:19;;;;;;;8.60;3.22;;;;;;;26.67;56.17;100585.75;2103346;28;20131;-75
2022/08/12 04:32:42;;;;;;;6.53;3.28;;;;;;;26.79;55.74;100585.09;2118481;27;20074;-74
2022/08/12 04:34:06;;;;;;;7.63;3.42;;;;;;;26.90;55.58;100592.69;2108150;28;20052;-75
2022/08/12 04:35:28;;;;;;;5.00;2.83;;;;;;;27.01;55.35;100592.97;2119669;27;20031;-75
2022/08/12 04:36:52;;;;;;;7.35;3.22;;;;;;;27.15;55.44;100592.22;2107309;28;20048;-76
2022/08/12 04:38:15;;;;;;;8.30;3.58;;;;;;;27.27;55.19;100581.56;2101619;28;20048;-75
2022/08/12 04:39:39;;;;;;;7.65;3.35;;;;;;;27.41;54.83;100586.19;2111182;28;20039;-75
2022/08/12 04:41:02;;;;;;;4.75;2.85;;;;;;;27.54;54.52;100591.81;2088529;28;20159;-75
2022/08/12 04:42:24;;;;;;;8.88;3.22;;;;;;;27.66;54.04;100592.00;2099178;28;20105;-75
2022/08/12 04:43:47;;;;;;;10.02;3.42;;;;;;;27.81;53.63;100581.22;2102563;28;20458;-75
2022/08/12 04:45:10;;;;;;;5.93;3.25;;;;;;;27.93;53.29;100591.34;2102207;28;20323;-75
2022/08/12 04:46:33;;;;;;;10.23;3.00;;;;;;;28.02;52.80;100585.38;2101609;28;20571;-75
2022/08/12 04:47:55;;;;;;;5.93;3.30;;;;;;;28.14;52.52;100581.97;2102577;28;20047;-75
2022/08/12 04:49:18;;;;;;;9.13;3.20;;;;;;;28.24;52.37;100585.84;2103233;28;20119;-75
2022/08/12 04:50:41;;;;;;;4.88;3.08;;;;;;;28.36;51.99;100582.38;2098191;28;20043;-75
2022/08/12 04:52:05;;;;;;;6.70;2.97;;;;;;;28.47;51.56;100579.91;2119305;27;20049;-76
2022/08/12 04:53:29;;;;;;;16.38;3.40;;;;;;;28.59;51.60;100586.44;2105065;28;20048;-75
2022/08/12 04:54:52;;;;;;;10.10;3.40;;;;;;;28.73;51.38;100582.84;2102767;28;20048;-75
2022/08/12 04:56:15;;;;;;;9.18;3.45;;;;;;;28.87;51.18;100574.75;2106541;28;20147;-75
2022/08/12 04:57:37;;;;;;;7.90;3.33;;;;;;;29.00;50.77;100577.56;2110280;28;20044;-75
2022/08/12 04:58:59;;;;;;;;;;;;;;;29.08;49.80;100581.50;2105280;28;20079;-75
2022/08/12 05:00:21;;;;;;;6.25;3.30;;;;;;;29.21;49.93;100574.31;2100911;28;20015;-76
2022/08/12 05:01:49;;;;;;;6.72;2.75;;;;;;;29.32;49.82;100573.63;2102151;28;20044;-75
2022/08/12 05:03:14;;;;;;;8.15;2.95;;;;;;;29.46;49.24;100578.22;2097731;28;20075;-75
2022/08/12 05:04:36;;;;;;;6.88;3.03;;;;;;;29.57;48.92;100576.53;2100190;28;20051;-75
2022/08/12 05:05:59;;;;;;;8.02;2.75;;;;;;;29.67;48.99;100577.63;2100343;28;20046;-75
2022/08/12 05:07:21;;;;;;;7.32;2.35;;;;;;;29.76;48.45;100570.72;2095497;28;20048;-75
2022/08/12 05:08:44;;;;;;;9.38;3.67;;;;;;;29.86;48.29;100573.72;2102668;28;20051;-75
2022/08/12 05:10:06;;;;;;;7.60;2.90;;;;;;;29.96;47.77;100575.72;2093762;28;20488;-76
2022/08/12 05:11:28;;;;;;;5.78;3.10;;;;;;;30.10;47.25;100578.38;2086748;28;20040;-76
2022/08/12 05:12:54;;;;;;;7.78;2.90;;;;;;;30.27;47.04;100581.78;2099488;28;20389;-75
2022/08/12 05:14:17;;;;;;;7.00;3.15;;;;;;;30.40;46.72;100572.66;2099484;28;20062;-76
2022/08/12 05:15:40;;;;;;;7.20;3.38;;;;;;;30.52;46.25;100579.16;2101143;28;20095;-75
2022/08/12 05:17:03;;;;;;;5.85;3.33;;;;;;;30.63;45.53;100570.22;2110774;28;20067;-75
2022/08/12 05:18:26;;;;;;;6.72;3.25;;;;;;;30.73;44.83;100577.63;2096516;28;20147;-75
2022/08/12 05:19:48;;;;;;;6.18;2.97;;;;;;;30.81;44.67;100580.69;2099868;28;20056;-75
2022/08/12 05:21:10;;;;;;;7.20;3.03;;;;;;;30.92;44.66;100573.59;2101420;28;20047;-76
2022/08/12 05:22:32;;;;;;;6.38;3.10;;;;;;;31.03;44.15;100570.94;2118035;27;20138;-76
2022/08/12 05:23:54;;;;;;;8.35;3.00;;;;;;;31.12;43.69;100578.47;2097504;28;20170;-76
2022/08/12 05:25:16;;;;;;;6.13;3.33;;;;;;;31.19;43.67;100572.47;2093009;28;20078;-75
2022/08/12 05:26:39;;;;;;;5.90;2.88;;;;;;;31.26;43.36;100571.03;2090913;28;20048;-75
2022/08/12 05:28:02;;;;;;;8.50;3.53;;;;;;;31.42;43.17;100578.97;2093865;28;20056;-76
2022/08/12 05:29:27;;;;;;;5.65;2.80;;;;;;;31.55;42.61;100577.09;2109624;28;20048;-76
2022/08/12 05:30:50;;;;;;;6.07;2.65;;;;;;;31.69;42.35;100589.75;2104365;28;20044;-76
2022/08/12 05:32:19;;;;;;;8.40;3.33;;;;;;;31.79;42.07;100584.44;2093297;28;20202;-75
2022/08/12 05:33:45;;;;;;;8.88;3.40;;;;;;;31.94;41.67;100578.69;2102568;28;20040;-75
2022/08/12 05:35:09;;;;;;;5.60;3.10;;;;;;;32.09;41.54;100583.97;2111213;28;20534;-75
2022/08/12 05:36:31;;;;;;;6.97;3.20;;;;;;;32.23;41.62;100586.56;2117932;27;20047;-75
2022/08/12 05:38:54;;;;;;;5.28;2.97;;;;;;;32.38;41.04;100591.69;2105327;28;20092;-75
2022/08/12 05:39:35;;;;;;;7.47;3.10;;;;;;;32.48;40.88;100585.50;2106837;28;20160;-76
2022/08/12 05:40:57;;;;;;;9.27;3.30;;;;;;;32.50;40.60;100578.03;2101368;28;20048;-76
2022/08/12 05:42:23;;;;;;;7.72;2.75;;;;;;;32.54;40.35;100580.44;2102308;28;20044;-76
2022/08/12 05:43:46;;;;;;;4.88;2.80;;;;;;;32.65;40.31;100587.78;2110878;28;20061;-75
2022/08/12 05:45:10;;;;;;;7.10;3.33;;;;;;;32.77;39.97;100595.91;2104801;28;20499;-75
2022/08/12 05:46:33;;;;;;;7.07;3.08;;;;;;;32.79;39.74;100580.25;2118210;27;20047;-76
2022/08/12 05:47:54;;;;;;;3.53;2.20;;;;;;;32.84;39.43;100585.34;2115464;28;20078;-75
2022/08/12 05:49:18;;;;;;;4.35;2.67;;;;;;;32.87;39.44;100582.38;2104815;28;20051;-76
2022/08/12 05:50:40;;;;;;;7.47;2.83;;;;;;;32.95;39.65;100596.28;2102203;28;20077;-76
2022/08/12 05:52:02;;;;;;;6.70;2.80;;;;;;;33.07;39.08;100589.84;2102091;28;20056;-75
2022/08/12 05:53:24;;;;;;;6.15;2.92;;;;;;;33.15;38.77;100587.34;2102282;28;20044;-75
2022/08/12 05:54:46;;;;;;;4.45;2.60;;;;;;;33.23;38.46;100578.53;2104749;28;20109;-76
2022/08/12 05:56:18;;;;;;;9.98;3.35;;;;;;;33.27;38.22;100585.53;2104794;28;20032;-75
2022/08/12 05:57:43;;;;;;;;;;;;;;;33.27;38.32;100588.25;2110012;28;20048;-76
2022/08/12 05:59:07;;;;;;;7.47;3.80;;;;;;;33.44;38.40;100575.91;2113137;28;19980;-75
2022/08/12 06:00:30;;;;;;;5.38;2.70;;;;;;;33.53;38.04;100588.84;2108220;28;20525;-75
2022/08/12 06:01:57;;;;;;;7.30;3.15;;;;;;;33.69;37.86;100593.91;2118889;28;20051;-75
2022/08/12 06:03:20;;;;;;;6.55;3.15;;;;;;;33.80;37.42;100589.31;2097431;28;20067;-76
2022/08/12 06:04:44;;;;;;;6.35;3.03;;;;;;;33.92;37.29;100588.28;2093827;28;20143;-76
2022/08/12 06:06:05;;;;;;;5.28;2.75;;;;;;;34.03;36.96;100594.69;2099052;28;20534;-76
2022/08/12 06:07:28;;;;;;;7.10;3.00;;;;;;;34.06;36.95;100597.19;2102095;28;20467;-75
2022/08/12 06:08:53;;;;;;;8.43;3.08;;;;;;;34.13;36.91;100590.19;2103999;28;20047;-76
2022/08/12 06:10:16;;;;;;;6.05;2.78;;;;;;;34.24;36.69;100593.78;2102730;28;20068;-76
2022/08/12 06:11:40;;;;;;;6.22;2.80;;;;;;;34.29;36.54;100602.47;2104776;28;20044;-75
2022/08/12 06:13:05;;;;;;;7.50;2.80;;;;;;;34.27;36.51;100595.38;2102304;28;20677;-76
2022/08/12 06:14:27;;;;;;;6.88;3.00;;;;;;;34.20;36.49;100605.13;2116820;28;20047;-76
2022/08/12 06:15:50;;;;;;;4.43;2.70;;;;;;;34.11;36.61;100592.19;2106407;28;20119;-77
2022/08/12 06:17:12;;;;;;;6.30;3.47;;;;;;;34.11;36.79;100598.53;2118883;28;20055;-77
2022/08/12 06:18:38;;;;;;;7.22;3.20;;;;;;;34.21;36.60;100598.59;2107414;28;20639;-77
2022/08/12 06:20:02;;;;;;;6.40;3.28;;;;;;;34.21;36.57;100598.59;2097768;28;20147;-76
2022/08/12 06:21:25;;;;;;;5.57;3.20;;;;;;;34.25;36.64;100591.91;2092936;28;20067;-77
2022/08/12 06:22:47;;;;;;;5.20;2.40;;;;;;;34.35;36.51;100595.59;2093160;28;20479;-77
2022/08/12 06:24:12;;;;;;;7.78;2.67;;;;;;;34.43;36.23;100594.94;2105827;28;20640;-77
2022/08/12 06:25:34;;;;;;;6.90;3.15;;;;;;;34.41;36.39;100597.78;2116815;28;20055;-77
2022/08/12 06:26:58;;;;;;;4.85;2.70;;;;;;;34.36;36.34;100589.97;2099622;28;20064;-77
2022/08/12 06:28:21;;;;;;;8.10;3.00;;;;;;;34.34;36.23;100588.34;2119440;27;20140;-77
2022/08/12 06:29:43;;;;;;;7.85;3.03;;;;;;;34.32;36.14;100588.50;2107330;27;20059;-77
2022/08/12 06:31:06;;;;;;;4.38;3.00;;;;;;;34.41;36.07;100595.06;2109191;28;20194;-76
2022/08/12 06:32:28;;;;;;;7.95;3.10;;;;;;;34.52;35.96;100583.16;2106740;28;20599;-77
2022/08/12 06:33:52;;;;;;;7.05;3.33;;;;;;;34.62;35.81;100587.69;2113855;27;20123;-77
2022/08/12 06:35:16;;;;;;;5.95;2.50;;;;;;;34.73;35.61;100584.91;2096311;28;20059;-77
2022/08/12 06:36:39;;;;;;;6.75;2.95;;;;;;;34.86;35.72;100594.78;2102903;28;20044;-75
2022/08/12 06:38:02;;;;;;;5.45;3.22;;;;;;;34.87;35.70;100596.53;2097117;28;20203;-77
2022/08/12 06:39:25;;;;;;;6.85;3.00;;;;;;;34.91;35.58;100598.88;2108581;27;20134;-76
2022/08/12 06:44:19;;;;;;;6.25;2.88;;;;;;;35.09;35.75;100591.75;2089140;28;20044;-76
2022/08/12 06:45:48;;;;;;;6.20;2.70;;;;;;;35.20;35.85;100610.00;2098849;28;20127;-76
2022/08/12 06:47:09;;;;;;;10.80;3.20;;;;;;;35.30;35.87;100602.72;2111300;28;20093;-75
2022/08/12 06:48:33;;;;;;;9.00;3.00;;;;;;;35.32;35.87;100597.06;2088206;28;20040;-76
2022/08/12 06:49:56;;;;;;;6.10;3.22;;;;;;;35.42;35.86;100592.50;2101007;28;20044;-75
2022/08/12 06:51:21;;;;;;;5.90;3.13;;;;;;;35.43;35.84;100600.59;2103207;28;20063;-76
2022/08/12 06:52:44;;;;;;;6.38;3.10;;;;;;;35.43;35.69;100605.22;2110324;28;20043;-75
2022/08/12 06:54:09;;;;;;;4.95;3.20;;;;;;;35.40;35.70;100598.13;2104182;28;20659;-75
2022/08/12 06:55:31;;;;;;;8.63;4.05;;;;;;;35.38;35.71;100599.28;2101190;28;20040;-75
2022/08/12 06:56:54;;;;;;;6.82;3.20;;;;;;;35.45;35.45;100604.03;2105782;28;20133;-75
2022/08/12 06:58:19;;;;;;;4.88;2.58;;;;;;;35.48;35.44;100597.41;2105590;28;20059;-75
2022/08/12 06:59:42;;;;;;;9.52;3.38;;;;;;;35.53;35.31;100606.09;2103054;28;20040;-75
2022/08/12 07:01:04;;;;;;;6.70;3.20;;;;;;;35.48;35.22;100601.03;2108159;27;20055;-75
2022/08/12 07:02:27;;;;;;;8.55;3.30;;;;;;;35.51;35.45;100598.00;2106090;28;20083;-75
2022/08/12 07:03:50;;;;;;;5.15;2.88;;;;;;;35.60;35.42;100604.53;2097634;28;20045;-75
2022/08/12 07:05:12;;;;;;;7.93;3.35;;;;;;;35.73;35.50;100598.81;2104251;27;20063;-75
2022/08/12 07:06:36;;;;;;;5.47;3.30;;;;;;;35.85;35.13;100604.03;2097709;28;20040;-75
2022/08/12 07:08:11;;;;;;;9.55;3.25;;;;;;;35.77;34.80;100600.28;2102935;28;20048;-75
2022/08/12 07:09:33;;;;;;;5.88;2.67;;;;;;;35.78;34.95;100604.75;2105916;28;20097;-75
2022/08/12 07:10:57;;;;;;;6.88;3.55;;;;;;;35.74;34.81;100606.03;2097715;28;20082;-75
2022/08/12 07:12:20;;;;;;;5.63;2.95;;;;;;;35.79;34.87;100598.25;2111577;28;20856;-75
2022/08/12 07:13:45;;;;;;;6.75;3.08;;;;;;;35.96;34.93;100594.81;2091638;28;20166;-75
2022/08/12 07:15:07;;;;;;;26.25;5.57;;;;;;;36.02;34.87;100607.97;2112682;27;20067;-75
2022/08/12 07:16:50;;;;;;;8.85;3.20;;;;;;;36.08;35.16;100601.03;2106573;28;20142;-75
2022/08/12 07:18:18;;;;;;;6.13;2.80;;;;;;;35.94;35.38;100608.69;2112339;28;20146;-75
2022/08/12 07:19:42;;;;;;;5.82;2.88;;;;;;;35.77;35.79;100606.66;2105221;28;20162;-75
2022/08/12 07:21:06;;;;;;;4.65;2.70;;;;;;;35.70;36.03;100607.34;2102694;28;20039;-75
2022/08/12 07:22:31;;;;;;;5.22;2.65;;;;;;;35.66;36.39;100619.59;2097091;28;20139;-75
2022/08/12 07:23:55;;;;;;;5.78;2.90;;;;;;;35.67;36.62;100610.34;2100613;28;20044;-75
2022/08/12 07:26:54;;;;;;;6.93;3.33;;;;;;;35.52;36.57;100615.34;2104455;28;20447;-75
2022/08/12 07:28:22;;;;;;;5.35;2.40;;;;;;;35.52;36.54;100609.84;2119803;27;20059;-75
2022/08/12 07:29:43;;;;;;;4.50;2.88;;;;;;;35.45;36.41;100622.41;2107939;28;20048;-75
2022/08/12 07:31:08;;;;;;;5.75;2.92;;;;;;;35.48;36.25;100622.13;2103176;28;20503;-75
2022/08/12 07:32:29;;;;;;;6.00;2.90;;;;;;;35.58;36.29;100621.16;2106728;28;20079;-75
2022/08/12 07:33:51;;;;;;;6.00;2.80;;;;;;;35.71;36.13;100620.94;2097261;28;20052;-75
2022/08/12 07:35:14;;;;;;;5.05;2.67;;;;;;;35.86;35.79;100624.16;2094229;28;20053;-75
2022/08/12 07:36:36;;;;;;;6.35;3.13;;;;;;;35.92;35.72;100623.56;2102903;28;20048;-75
2022/08/12 07:37:59;;;;;;;7.25;3.00;;;;;;;36.00;35.42;100615.50;2097297;28;20557;-75
2022/08/12 07:39:22;;;;;;;4.40;2.50;;;;;;;36.05;35.19;100620.56;2094847;28;20044;-75
2022/08/12 07:40:44;;;;;;;5.93;3.25;;;;;;;36.08;35.03;100618.41;2111036;28;20052;-75
2022/08/12 07:42:07;;;;;;;5.95;2.75;;;;;;;36.05;34.77;100613.19;2100072;28;20055;-75
2022/08/12 07:43:28;;;;;;;6.05;2.92;;;;;;;36.07;34.88;100618.53;2105108;28;20409;-75
2022/08/12 07:44:51;;;;;;;6.38;2.80;;;;;;;36.09;34.83;100616.53;2096335;28;20056;-75
2022/08/12 07:46:16;;;;;;;7.32;2.90;;;;;;;36.06;34.97;100614.91;2111684;28;20440;-75
2022/08/12 07:47:42;;;;;;;6.75;2.83;;;;;;;36.12;35.03;100613.47;2107925;28;20048;-75
2022/08/12 07:49:07;;;;;;;5.80;3.25;;;;;;;36.21;35.07;100619.03;2112545;28;20051;-74
2022/08/12 07:50:28;;;;;;;7.78;2.67;;;;;;;36.26;34.96;100616.69;2128895;27;20053;-75
2022/08/12 07:51:50;;;;;;;6.80;3.10;;;;;;;36.25;34.89;100617.72;2117003;27;20055;-75
2022/08/12 07:53:14;;;;;;;5.85;2.85;;;;;;;36.19;34.63;100623.78;2097428;28;20048;-75
2022/08/12 07:54:37;;;;;;;7.97;3.28;;;;;;;36.20;34.66;100624.66;2097107;28;20036;-75
2022/08/12 07:55:59;;;;;;;4.72;2.80;;;;;;;36.26;34.60;100624.94;2100479;28;20056;-76
2022/08/12 07:57:21;;;;;;;7.50;4.30;;;;;;;36.30;34.66;100618.13;2111309;28;20040;-75
2022/08/12 07:58:43;;;;;;;5.60;2.78;;;;;;;36.28;34.25;100622.94;2096290;28;20041;-75
2022/08/12 08:00:05;;;;;;;6.65;3.10;;;;;;;36.23;34.45;100617.00;2125771;27;20087;-73